createdAt,value
2022-11-10T00:03:36.222Z,79.77
2022-11-10T00:08:57.222Z,79.95
2022-11-10T00:14:36.207Z,80.01
2022-11-10T00:19:59.127Z,79.87
2022-11-10T00:25:20.609Z,80.09
2022-11-10T00:30:46.540Z,80.02
2022-11-10T00:36:10.109Z,80.18
2022-11-10T00:41:31.560Z,79.86
2022-11-10T00:46:52.923Z,79.84
2022-11-10T00:52:15.704Z,79.84
2022-11-10T00:57:37.028Z,79.73
2022-11-10T01:02:58.748Z,80.04
2022-11-10T01:08:21.198Z,79.89
2022-11-10T01:13:43.459Z,80.10
2022-11-10T01:19:04.653Z,80.19
2022-11-10T01:24:27.406Z,80.06
2022-11-10T01:29:48.551Z,80.13
2022-11-10T01:35:10.501Z,79.96
2022-11-10T01:40:39.729Z,80.15
2022-11-10T01:46:01.780Z,80.14
2022-11-10T01:51:26.109Z,80.46
2022-11-10T01:56:58.922Z,80.36
2022-11-10T02:02:23.023Z,80.51
2022-11-10T02:07:44.469Z,80.27
2022-11-10T02:13:13.257Z,80.39
2022-11-10T02:18:34.544Z,80.56
2022-11-10T02:23:57.260Z,80.27
2022-11-10T02:29:18.728Z,80.26
2022-11-10T02:34:42.543Z,80.31
2022-11-10T02:40:05.711Z,80.24
2022-11-10T02:45:26.913Z,80.19
2022-11-10T02:50:50.371Z,80.23
2022-11-10T02:56:13.408Z,80.40
2022-11-10T03:01:34.798Z,80.39
2022-11-10T03:06:56.119Z,80.42
2022-11-10T03:12:19.141Z,80.31
2022-11-10T03:17:40.323Z,80.38
2022-11-10T03:23:02.843Z,80.43
2022-11-10T03:28:25.496Z,80.54
2022-11-10T03:33:46.942Z,80.23
2022-11-10T03:39:08.316Z,80.43
2022-11-10T03:44:31.143Z,80.26
2022-11-10T03:49:52.579Z,80.26
2022-11-10T03:55:17.847Z,80.29
2022-11-10T04:00:43.248Z,80.45
2022-11-10T04:06:22.468Z,80.37
2022-11-10T04:12:01.505Z,80.45
2022-11-10T04:17:24.242Z,80.26
2022-11-10T04:23:03.287Z,80.40
2022-11-10T04:28:24.776Z,80.40
2022-11-10T04:33:48.192Z,80.36
2022-11-10T04:39:10.007Z,80.44
2022-11-10T04:44:31.515Z,80.26
2022-11-10T04:49:54.129Z,80.22
2022-11-10T04:55:16.172Z,79.94
2022-11-10T05:00:38.073Z,79.60
2022-11-10T05:06:00.452Z,80.03
2022-11-10T05:11:21.968Z,80.01
2022-11-10T05:16:43.448Z,80.04
2022-11-10T05:22:07.630Z,79.50
2022-11-10T05:27:29.981Z,79.15
2022-11-10T05:32:51.238Z,78.82
2022-11-10T05:38:14.068Z,79.34
2022-11-10T05:43:35.397Z,79.71
2022-11-10T05:48:56.725Z,79.75
2022-11-10T05:54:19.615Z,80.03
2022-11-10T05:59:40.793Z,79.97
2022-11-10T06:05:04.628Z,79.90
2022-11-10T06:10:27.365Z,80.01
2022-11-10T06:15:50.594Z,79.70
2022-11-10T06:21:12.129Z,79.63
2022-11-10T06:26:34.940Z,79.74
2022-11-10T06:31:56.218Z,79.20
2022-11-10T06:37:17.735Z,79.11
2022-11-10T06:42:40.535Z,78.96
2022-11-10T06:48:03.047Z,78.84
2022-11-10T06:53:27.026Z,78.73
2022-11-10T06:58:50.244Z,78.98
2022-11-10T07:04:19.733Z,79.51
2022-11-10T07:09:42.361Z,79.43
2022-11-10T07:15:06.806Z,79.55
2022-11-10T07:20:28.409Z,79.59
2022-11-10T07:25:49.599Z,79.30
2022-11-10T07:31:12.603Z,79.39
2022-11-10T07:36:33.684Z,79.02
2022-11-10T07:41:55.200Z,79.10
2022-11-10T07:47:18.039Z,78.96
2022-11-10T07:52:39.440Z,78.81
2022-11-10T07:58:01.241Z,78.64
2022-11-10T08:03:23.989Z,78.46
2022-11-10T08:08:47.029Z,78.41
2022-11-10T08:14:08.318Z,78.02
2022-11-10T08:19:31.050Z,77.98
2022-11-10T08:24:52.489Z,77.90
2022-11-10T08:30:14.314Z,77.49
2022-11-10T08:35:38.414Z,77.31
2022-11-10T08:41:02.147Z,77.23
2022-11-10T08:46:23.129Z,76.94
2022-11-10T08:51:45.930Z,76.70
2022-11-10T08:57:08.503Z,76.75
2022-11-10T09:02:30.401Z,76.95
2022-11-10T09:07:53.131Z,77.02
2022-11-10T09:13:15.755Z,76.78
2022-11-10T09:18:37.954Z,76.54
2022-11-10T09:24:00.439Z,76.17
2022-11-10T09:29:22.891Z,76.24
2022-11-10T09:34:45.650Z,76.38
2022-11-10T09:40:17.878Z,76.21
2022-11-10T09:45:41.631Z,75.93
2022-11-10T09:51:05.675Z,75.50
2022-11-10T09:56:33.162Z,75.03
2022-11-10T10:01:59.135Z,74.55
2022-11-10T10:07:24.111Z,74.14
2022-11-10T10:13:01.716Z,74.62
2022-11-10T10:18:30.572Z,74.25
2022-11-10T10:24:09.551Z,73.77
2022-11-10T10:29:37.882Z,73.29
2022-11-10T10:34:59.253Z,72.82
2022-11-10T10:40:23.314Z,72.52
2022-11-10T10:46:04.248Z,72.26
2022-11-10T10:51:31.952Z,72.00
2022-11-10T10:57:02.227Z,71.89
2022-11-10T11:02:28.036Z,71.80
2022-11-10T11:07:56.203Z,71.54
2022-11-10T11:13:25.554Z,71.35
2022-11-10T11:18:48.307Z,70.84
2022-11-10T11:24:20.990Z,70.44
2022-11-10T11:30:05.498Z,69.16
2022-11-10T11:35:33.694Z,69.12
2022-11-10T11:41:09.775Z,68.65
2022-11-10T11:46:38.135Z,68.34
2022-11-10T11:52:08.727Z,67.68
2022-11-10T11:57:39.997Z,67.82
2022-11-10T12:03:39.956Z,67.20
2022-11-10T12:09:07.056Z,68.20
2022-11-10T12:14:36.711Z,68.81
2022-11-10T12:20:02.844Z,69.03
2022-11-10T12:25:29.803Z,69.43
2022-11-10T12:30:57.677Z,68.93
2022-11-10T12:36:23.917Z,68.21
2022-11-10T12:41:48.052Z,67.91
2022-11-10T12:47:13.321Z,67.12
2022-11-10T12:52:38.528Z,67.38
2022-11-10T12:58:01.967Z,68.44
2022-11-10T13:03:29.135Z,68.91
2022-11-10T13:08:50.723Z,69.98
2022-11-10T13:14:25.072Z,69.94
2022-11-10T13:19:53.406Z,69.90
2022-11-10T13:26:00.716Z,69.65
2022-11-10T13:31:53.032Z,69.42
2022-11-10T13:37:51.800Z,69.66
2022-11-10T13:43:27.234Z,69.60
2022-11-10T13:49:03.277Z,69.59
2022-11-10T13:54:51.049Z,69.70
2022-11-10T14:00:27.247Z,69.86
2022-11-10T14:06:09.072Z,69.87
2022-11-10T14:11:35.760Z,70.10
2022-11-10T14:16:57.578Z,69.91
2022-11-10T14:22:24.083Z,70.25
2022-11-10T14:27:45.705Z,70.73
2022-11-10T14:33:10.776Z,70.84
2022-11-10T14:38:35.904Z,71.01
2022-11-10T14:44:01.727Z,71.36
2022-11-10T14:49:24.909Z,71.40
2022-11-10T14:54:47.745Z,71.54
2022-11-10T15:00:15.540Z,71.65
2022-11-10T15:05:36.876Z,71.91
2022-11-10T15:10:59.387Z,72.11
2022-11-10T15:16:26.117Z,72.54
2022-11-10T15:21:47.950Z,72.51
2022-11-10T15:27:14.913Z,72.83
2022-11-10T15:32:37.547Z,73.05
2022-11-10T15:38:03.358Z,73.47
2022-11-10T15:43:29.109Z,73.71
2022-11-10T15:48:51.956Z,73.81
2022-11-10T15:54:13.179Z,74.13
2022-11-10T15:59:36.087Z,74.25
2022-11-10T16:05:00.046Z,74.31
2022-11-10T16:10:22.132Z,74.38
2022-11-10T16:15:45.182Z,74.37
2022-11-10T16:21:06.860Z,74.20
2022-11-10T16:26:28.331Z,74.22
2022-11-10T16:31:51.126Z,74.33
2022-11-10T16:37:13.765Z,73.71
2022-11-10T16:42:35.272Z,73.90
2022-11-10T16:47:58.686Z,73.96
2022-11-10T16:53:23.922Z,74.10
2022-11-10T16:58:45.087Z,74.22
2022-11-10T17:04:09.857Z,73.85
2022-11-10T17:09:31.732Z,73.78
2022-11-10T17:14:53.178Z,73.96
2022-11-10T17:20:21.216Z,74.13
2022-11-10T17:25:43.034Z,74.29
2022-11-10T17:31:04.345Z,74.23
2022-11-10T17:36:27.110Z,74.35
2022-11-10T17:41:48.909Z,73.91
2022-11-10T17:47:10.322Z,74.00
2022-11-10T17:52:33.279Z,74.08
2022-11-10T17:57:54.917Z,74.26
2022-11-10T18:03:17.750Z,74.27
2022-11-10T18:08:40.340Z,74.23
2022-11-10T18:14:02.321Z,74.24
2022-11-10T18:19:23.680Z,74.47
2022-11-10T18:24:46.725Z,74.54
2022-11-10T18:30:09.255Z,74.46
2022-11-10T18:35:31.162Z,74.49
2022-11-10T18:40:53.997Z,74.52
2022-11-10T18:46:15.201Z,74.61
2022-11-10T18:51:36.746Z,74.76
2022-11-10T18:56:59.197Z,74.92
2022-11-10T19:02:20.657Z,75.19
2022-11-10T19:07:42.091Z,75.36
2022-11-10T19:13:04.858Z,75.24
2022-11-10T19:18:26.253Z,75.18
2022-11-10T19:23:47.694Z,75.13
2022-11-10T19:29:10.586Z,75.19
2022-11-10T19:34:31.925Z,75.26
2022-11-10T19:39:53.334Z,75.28
2022-11-10T19:45:19.324Z,75.42
2022-11-10T19:50:45.164Z,75.25
2022-11-10T19:56:10.926Z,75.58
2022-11-10T20:01:33.621Z,75.70
2022-11-10T20:07:09.215Z,75.40
2022-11-10T20:12:34.464Z,75.41
2022-11-10T20:17:57.152Z,75.29
2022-11-10T20:23:19.751Z,75.45
2022-11-10T20:28:44.678Z,75.74
2022-11-10T20:34:07.117Z,75.79
2022-11-10T20:39:28.675Z,75.59
2022-11-10T20:44:50.139Z,75.82
2022-11-10T20:50:17.123Z,75.79
2022-11-10T20:55:55.657Z,75.65
2022-11-10T21:01:18.631Z,75.74
2022-11-10T21:06:41.339Z,76.03
2022-11-10T21:12:20.535Z,76.00
2022-11-10T21:17:44.253Z,76.02
2022-11-10T21:23:07.126Z,76.11
2022-11-10T21:28:28.578Z,76.14
2022-11-10T21:33:50.190Z,76.22
2022-11-10T21:39:12.850Z,75.97
2022-11-10T21:44:39.159Z,76.12
2022-11-10T21:50:00.585Z,76.06
2022-11-10T21:55:23.243Z,76.15
2022-11-10T22:00:45.076Z,76.47
2022-11-10T22:06:07.353Z,76.80
2022-11-10T22:11:47.884Z,76.90
2022-11-10T22:17:32.435Z,76.88
2022-11-10T22:22:53.949Z,76.71
2022-11-10T22:28:16.785Z,76.69
2022-11-10T22:33:40.329Z,76.65
2022-11-10T22:39:03.615Z,76.95
2022-11-10T22:44:26.718Z,76.97
2022-11-10T22:49:47.853Z,76.92
2022-11-10T22:55:09.627Z,76.97
2022-11-10T23:00:32.239Z,77.36
2022-11-10T23:05:56.455Z,77.46
2022-11-10T23:11:19.442Z,77.44
2022-11-10T23:16:42.383Z,77.95
2022-11-10T23:22:03.715Z,77.92
2022-11-10T23:27:25.188Z,77.93
2022-11-10T23:32:47.876Z,77.74
2022-11-10T23:38:09.223Z,77.55
2022-11-10T23:43:35.754Z,77.72
2022-11-10T23:48:58.420Z,77.73
2022-11-10T23:54:19.974Z,77.68
2022-11-10T23:59:41.179Z,77.84
